Time;durP1;ratioP1;P1;durP2;ratioP2;P2;SDS_P1;SDS_P2;PMS_P1;PMS_P2;Temp;Humidity;BMP_temperature;BMP_pressure;BME280_temperature;BME280_humidity;BME280_pressure;Samples;Min_cycle;Max_cycle;Signal;HPM_P1;HPM_P2
2022/12/09 06:32:27;;;;;;;;;22.75;18.50;;;;;;;;4745417;24;45528;-66
2022/12/09 06:34:52;;;;;;;;;27.75;21.00;;;;;;;;4705888;30;46287;-66
2022/12/09 06:37:17;;;;;;;;;26.25;20.75;;;;;;;;4714173;30;45591;-66
2022/12/09 06:39:43;;;;;;;;;22.00;19.75;;;;;;;;4711212;30;45681;-67
2022/12/09 06:42:08;;;;;;;;;26.00;24.25;;;;;;;;4695975;30;45471;-67
2022/12/09 06:44:33;;;;;;;;;25.75;18.75;;;;;;;;4718141;30;45434;-67
2022/12/09 06:46:59;;;;;;;;;22.25;18.00;;;;;;;;4718847;30;45415;-66
2022/12/09 06:49:24;;;;;;;;;25.00;22.00;;;;;;;;4715810;30;46112;-67
2022/12/09 06:51:49;;;;;;;;;29.75;19.50;;;;;;;;4717983;30;45479;-67
2022/12/09 06:54:15;;;;;;;;;25.75;21.75;;;;;;;;4702832;30;45301;-66
2022/12/09 06:56:40;;;;;;;;;30.50;21.00;;;;;;;;4715090;30;45388;-66
2022/12/09 06:59:06;;;;;;;;;20.50;17.00;;;;;;;;4716315;30;45543;-67
2022/12/09 07:01:31;;;;;;;;;28.00;17.25;;;;;;;;4717950;30;45305;-68
2022/12/09 07:03:56;;;;;;;;;29.25;21.00;;;;;;;;4719178;30;45387;-66
2022/12/09 07:06:24;;;;;;;;;23.25;21.50;;;;;;;;4718460;30;45304;-67
2022/12/09 07:08:50;;;;;;;;;21.50;15.50;;;;;;;;4717096;30;45506;-68
2022/12/09 07:11:15;;;;;;;;;28.50;21.50;;;;;;;;4716828;30;45221;-71
2022/12/09 07:13:40;;;;;;;;;24.75;22.25;;;;;;;;4718984;30;45317;-71
2022/12/09 07:16:07;;;;;;;;;30.50;25.00;;;;;;;;4716659;30;45569;-71
2022/12/09 07:18:32;;;;;;;;;29.00;24.00;;;;;;;;4718070;30;45599;-71
2022/12/09 07:20:57;;;;;;;;;23.25;22.50;;;;;;;;4717542;30;45496;-70
2022/12/09 07:23:22;;;;;;;;;25.00;23.25;;;;;;;;4718736;30;45381;-71
2022/12/09 07:25:57;;;;;;;;;35.25;28.75;;;;;;;;4722694;30;45360;-72
2022/12/09 07:28:22;;;;;;;;;37.50;26.75;;;;;;;;4716433;30;45581;-71
2022/12/09 07:30:47;;;;;;;;;32.75;25.25;;;;;;;;4718885;30;45523;-67
2022/12/09 07:33:12;;;;;;;;;30.50;25.00;;;;;;;;4721470;30;45577;-63
2022/12/09 07:35:37;;;;;;;;;34.25;21.50;;;;;;;;4721386;30;45529;-66
2022/12/09 07:38:03;;;;;;;;;26.00;25.50;;;;;;;;4721185;30;45305;-63
2022/12/09 07:40:28;;;;;;;;;25.00;24.00;;;;;;;;4722360;30;45742;-65
2022/12/09 07:42:53;;;;;;;;;24.75;20.25;;;;;;;;4721270;30;45296;-64
2022/12/09 07:45:18;;;;;;;;;30.00;21.00;;;;;;;;4716632;30;46332;-67
2022/12/09 07:47:43;;;;;;;;;24.25;20.25;;;;;;;;4721755;30;45544;-64
2022/12/09 07:50:09;;;;;;;;;14.25;12.75;;;;;;;;4721268;30;45280;-64
2022/12/09 07:52:34;;;;;;;;;25.25;21.25;;;;;;;;4721308;30;45352;-64
2022/12/09 07:55:00;;;;;;;;;29.75;23.75;;;;;;;;4719930;30;46033;-65
2022/12/09 07:57:25;;;;;;;;;30.75;26.00;;;;;;;;4717509;30;45598;-66
2022/12/09 07:59:52;;;;;;;;;24.50;21.25;;;;;;;;4712331;30;45467;-66
2022/12/09 08:02:17;;;;;;;;;24.00;19.25;;;;;;;;4719298;30;45612;-66
2022/12/09 08:04:42;;;;;;;;;19.50;19.50;;;;;;;;4717226;30;45475;-66
2022/12/09 08:07:07;;;;;;;;;22.25;18.25;;;;;;;;4722320;30;46269;-66
2022/12/09 08:09:32;;;;;;;;;29.75;25.50;;;;;;;;4720494;30;45272;-66
2022/12/09 08:11:58;;;;;;;;;25.50;21.25;;;;;;;;4722924;30;45473;-66
2022/12/09 08:14:23;;;;;;;;;22.00;22.00;;;;;;;;4719602;30;45737;-66
2022/12/09 08:16:48;;;;;;;;;28.25;23.50;;;;;;;;4719006;30;46175;-65
2022/12/09 08:19:13;;;;;;;;;26.75;19.50;;;;;;;;4720275;30;45466;-66
2022/12/09 08:21:39;;;;;;;;;25.00;22.50;;;;;;;;4719360;30;45250;-66
2022/12/09 08:24:06;;;;;;;;;26.50;24.00;;;;;;;;4726615;30;45466;-66
2022/12/09 08:26:31;;;;;;;;;8.00;1.50;;;;;;;;4721888;30;46303;-66
2022/12/09 08:28:57;;;;;;;;;35.75;20.75;;;;;;;;4719547;30;45445;-66
2022/12/09 08:31:23;;;;;;;;;22.00;21.25;;;;;;;;4716618;30;45822;-65
2022/12/09 08:33:49;;;;;;;;;31.50;20.25;;;;;;;;4720338;30;45801;-65
2022/12/09 08:36:15;;;;;;;;;23.00;20.25;;;;;;;;4719718;30;46232;-65
2022/12/09 08:38:41;;;;;;;;;22.50;21.25;;;;;;;;4727560;30;45363;-66
2022/12/09 08:41:12;;;;;;;;;22.75;20.25;;;;;;;;4721675;30;45732;-65
2022/12/09 08:43:38;;;;;;;;;28.00;22.50;;;;;;;;4718748;30;45417;-65
2022/12/09 08:46:03;;;;;;;;;33.00;21.75;;;;;;;;4729741;30;45384;-66
2022/12/09 08:48:28;;;;;;;;;36.50;30.50;;;;;;;;4726141;30;45317;-66
2022/12/09 08:50:53;;;;;;;;;33.25;28.00;;;;;;;;4720257;30;45301;-66
2022/12/09 08:53:19;;;;;;;;;49.50;34.50;;;;;;;;4718770;30;45434;-66
2022/12/09 08:55:44;;;;;;;;;63.50;49.00;;;;;;;;4720286;30;45409;-66
2022/12/09 08:58:09;;;;;;;;;67.25;53.50;;;;;;;;4719238;30;45437;-66
2022/12/09 09:00:34;;;;;;;;;38.75;29.50;;;;;;;;4716020;30;45336;-66
2022/12/09 09:03:00;;;;;;;;;48.00;39.25;;;;;;;;4720533;30;45468;-65
2022/12/09 09:05:25;;;;;;;;;36.75;32.25;;;;;;;;4719532;30;45466;-65
2022/12/09 09:07:50;;;;;;;;;46.00;40.25;;;;;;;;4720229;30;45456;-65
2022/12/09 09:10:15;;;;;;;;;62.50;50.50;;;;;;;;4720299;30;45432;-65
2022/12/09 09:12:40;;;;;;;;;43.25;37.75;;;;;;;;4719979;30;45386;-66
2022/12/09 09:15:06;;;;;;;;;40.75;32.00;;;;;;;;4720066;30;45634;-66
2022/12/09 09:17:31;;;;;;;;;30.50;25.00;;;;;;;;4720657;30;45558;-66
2022/12/09 09:19:56;;;;;;;;;33.75;27.25;;;;;;;;4719838;30;45419;-65
2022/12/09 09:22:21;;;;;;;;;41.25;30.00;;;;;;;;4727852;30;45388;-65
2022/12/09 09:24:47;;;;;;;;;36.25;34.00;;;;;;;;4720807;30;45479;-65
2022/12/09 09:27:12;;;;;;;;;38.00;33.00;;;;;;;;4720308;30;45315;-65
2022/12/09 09:29:37;;;;;;;;;34.75;33.75;;;;;;;;4727533;30;45610;-65
2022/12/09 09:32:02;;;;;;;;;44.25;36.50;;;;;;;;4720312;30;45526;-65
2022/12/09 09:34:27;;;;;;;;;34.75;30.50;;;;;;;;4718810;30;46313;-65
2022/12/09 09:36:54;;;;;;;;;36.25;31.00;;;;;;;;4721884;30;45520;-65
2022/12/09 09:39:19;;;;;;;;;54.00;41.75;;;;;;;;4721542;30;45366;-65
2022/12/09 09:41:47;;;;;;;;;36.50;32.00;;;;;;;;4720082;30;45553;-65
2022/12/09 09:44:18;;;;;;;;;37.25;30.50;;;;;;;;4719075;30;46354;-65
2022/12/09 09:46:44;;;;;;;;;43.50;33.00;;;;;;;;4719207;30;45379;-65
2022/12/09 09:49:14;;;;;;;;;53.00;38.75;;;;;;;;4718668;30;45616;-65
2022/12/09 09:51:40;;;;;;;;;35.75;33.75;;;;;;;;4720233;30;45463;-65
2022/12/09 09:54:08;;;;;;;;;48.50;40.75;;;;;;;;4711695;30;45321;-65
2022/12/09 09:56:41;;;;;;;;;38.50;31.00;;;;;;;;4719881;30;45564;-65
2022/12/09 09:59:07;;;;;;;;;50.50;40.25;;;;;;;;4717741;30;45330;-65
2022/12/09 10:01:33;;;;;;;;;32.50;19.75;;;;;;;;4721585;30;45355;-65
2022/12/09 10:04:01;;;;;;;;;26.00;23.50;;;;;;;;4708280;30;47191;-65
2022/12/09 10:07:02;;;;;;;;;40.50;35.50;;;;;;;;4714942;30;45806;-65
2022/12/09 10:09:39;;;;;;;;;23.75;19.75;;;;;;;;4644810;30;45550;-65
2022/12/09 10:12:05;;;;;;;;;31.25;27.25;;;;;;;;4705697;30;45483;-64
2022/12/09 10:14:43;;;;;;;;;31.25;27.00;;;;;;;;4713210;30;45962;-63
2022/12/09 10:17:27;;;;;;;;;34.75;26.50;;;;;;;;4718716;30;45349;-63
2022/12/09 10:19:54;;;;;;;;;41.25;34.75;;;;;;;;4723393;30;45451;-65
2022/12/09 10:22:21;;;;;;;;;40.25;36.00;;;;;;;;4718879;30;45403;-65
2022/12/09 10:24:51;;;;;;;;;34.25;28.75;;;;;;;;4716817;30;45458;-65
2022/12/09 10:27:29;;;;;;;;;39.25;31.25;;;;;;;;4724599;30;45607;-65
2022/12/09 10:29:54;;;;;;;;;40.75;32.75;;;;;;;;4713819;30;45451;-66
2022/12/09 10:32:20;;;;;;;;;36.25;27.75;;;;;;;;4717580;30;45548;-65
2022/12/09 10:34:46;;;;;;;;;53.50;40.75;;;;;;;;4718756;30;45493;-63
2022/12/09 10:37:23;;;;;;;;;62.75;48.25;;;;;;;;4718119;30;45526;-62
2022/12/09 10:39:51;;;;;;;;;62.25;45.75;;;;;;;;4717838;30;45479;-62
2022/12/09 10:45:06;;;;;;;;;38.00;28.50;;;;;;;;4717213;30;45494;-61
2022/12/09 10:47:31;;;;;;;;;45.75;35.75;;;;;;;;4714492;30;45600;-60
2022/12/09 10:49:58;;;;;;;;;51.50;40.25;;;;;;;;4721874;30;45418;-64
2022/12/09 10:52:25;;;;;;;;;56.00;42.50;;;;;;;;4716492;30;46618;-63
2022/12/09 10:54:50;;;;;;;;;53.75;39.25;;;;;;;;4715828;30;45499;-63
2022/12/09 10:57:16;;;;;;;;;60.25;42.75;;;;;;;;4716652;30;45523;-64
2022/12/09 10:59:54;;;;;;;;;47.25;38.00;;;;;;;;4712298;30;45586;-62
2022/12/09 11:02:20;;;;;;;;;42.50;35.50;;;;;;;;4715762;30;45770;-62
2022/12/09 11:04:45;;;;;;;;;41.50;31.00;;;;;;;;4717910;30;45692;-62
2022/12/09 11:07:10;;;;;;;;;36.50;33.50;;;;;;;;4718523;30;45669;-64
2022/12/09 11:09:37;;;;;;;;;32.33;28.33;;;;;;;;4719863;30;45582;-64
2022/12/09 11:12:04;;;;;;;;;31.33;24.33;;;;;;;;4720543;30;45625;-63
2022/12/09 11:14:29;;;;;;;;;45.67;34.67;;;;;;;;4718987;30;47058;-63
2022/12/09 11:16:56;;;;;;;;;33.00;27.33;;;;;;;;4719746;30;45384;-63
2022/12/09 11:19:32;;;;;;;;;38.33;34.33;;;;;;;;4721341;30;45536;-63
2022/12/09 11:22:16;;;;;;;;;31.00;28.00;;;;;;;;4720414;30;45550;-63
2022/12/09 11:24:41;;;;;;;;;41.00;31.67;;;;;;;;4704548;30;47977;-63
2022/12/09 11:27:27;;;;;;;;;37.67;30.67;;;;;;;;4721134;30;45352;-61
2022/12/09 11:30:12;;;;;;;;;55.50;43.75;;;;;;;;4720522;30;45634;-63
2022/12/09 11:32:50;;;;;;;;;45.00;34.67;;;;;;;;4724524;30;45618;-63
2022/12/09 11:35:17;;;;;;;;;57.50;43.50;;;;;;;;4726003;30;45376;-63
2022/12/09 11:37:42;;;;;;;;;55.25;42.25;;;;;;;;4721642;30;45397;-63
2022/12/09 11:40:14;;;;;;;;;50.25;40.25;;;;;;;;4723891;30;45468;-63
2022/12/09 11:42:39;;;;;;;;;52.50;39.00;;;;;;;;4721714;30;45660;-62
2022/12/09 11:45:07;;;;;;;;;54.75;42.25;;;;;;;;4718137;30;46340;-62
2022/12/09 11:47:38;;;;;;;;;53.00;35.75;;;;;;;;4718537;30;45293;-63
2022/12/09 11:50:22;;;;;;;;;47.00;36.00;;;;;;;;4704926;30;45897;-62
2022/12/09 11:53:14;;;;;;;;;49.50;38.75;;;;;;;;4718460;30;45480;-62
2022/12/09 11:55:52;;;;;;;;;37.00;31.67;;;;;;;;4716250;30;46263;-62
2022/12/09 11:58:24;;;;;;;;;35.67;32.67;;;;;;;;4718684;30;45627;-62
2022/12/09 12:00:59;;;;;;;;;37.67;29.67;;;;;;;;4718478;30;46923;-62
2022/12/09 12:03:35;;;;;;;;;39.67;35.33;;;;;;;;4719356;30;45646;-62
2022/12/09 12:06:03;;;;;;;;;43.33;30.67;;;;;;;;4719505;30;46904;-61
2022/12/09 12:08:49;;;;;;;;;50.50;39.75;;;;;;;;4719039;30;45591;-62
2022/12/09 12:11:18;;;;;;;;;52.25;36.25;;;;;;;;4719427;30;45436;-62
2022/12/09 12:13:51;;;;;;;;;44.50;36.75;;;;;;;;4719989;30;45547;-62
2022/12/09 12:16:21;;;;;;;;;53.75;41.25;;;;;;;;4719138;30;45420;-62
2022/12/09 12:19:01;;;;;;;;;42.75;35.00;;;;;;;;4719901;30;45486;-62
2022/12/09 12:21:44;;;;;;;;;52.75;40.50;;;;;;;;4718487;30;45380;-61
2022/12/09 12:24:22;;;;;;;;;45.50;36.75;;;;;;;;4719326;30;45598;-62
2022/12/09 12:27:06;;;;;;;;;44.25;34.75;;;;;;;;4717137;30;45600;-62
2022/12/09 12:29:49;;;;;;;;;47.25;40.00;;;;;;;;4717400;30;45548;-62
2022/12/09 12:32:41;;;;;;;;;37.67;33.33;;;;;;;;4718393;30;45486;-62
2022/12/09 12:35:06;;;;;;;;;48.67;35.67;;;;;;;;4699506;30;46291;-62
2022/12/09 12:37:59;;;;;;;;;40.67;35.33;;;;;;;;4718289;30;45389;-62
2022/12/09 12:40:30;;;;;;;;;36.33;32.33;;;;;;;;4718544;30;45655;-62
2022/12/09 12:46:17;;;;;;;;;29.33;29.33;;;;;;;;4719171;30;45609;-62
2022/12/09 12:48:57;;;;;;;;;28.33;26.67;;;;;;;;4717995;30;45975;-66
2022/12/09 12:51:31;;;;;;;;;28.00;22.33;;;;;;;;4719779;30;45332;-66
2022/12/09 12:54:15;;;;;;;;;28.33;23.33;;;;;;;;4709344;30;45497;-66
2022/12/09 12:56:45;;;;;;;;;48.25;39.00;;;;;;;;4715364;30;45341;-67
2022/12/09 12:59:17;;;;;;;;;38.33;34.33;;;;;;;;4719725;30;46331;-65
2022/12/09 13:01:50;;;;;;;;;31.00;26.00;;;;;;;;4719367;30;45384;-66
2022/12/09 13:04:15;;;;;;;;;40.33;29.67;;;;;;;;4711038;30;45462;-66
2022/12/09 13:06:53;;;;;;;;;35.33;32.00;;;;;;;;4712349;30;45665;-65
2022/12/09 13:09:24;;;;;;;;;27.67;27.00;;;;;;;;4710818;30;45834;-66
2022/12/09 13:11:55;;;;;;;;;28.33;23.67;;;;;;;;4715633;30;45437;-63
2022/12/09 13:14:24;;;;;;;;;59.25;45.25;;;;;;;;4708337;30;45494;-63
2022/12/09 13:16:50;;;;;;;;;43.00;34.00;;;;;;;;4718694;30;45431;-63
2022/12/09 13:19:22;;;;;;;;;31.67;27.67;;;;;;;;4718206;30;46073;-63
2022/12/09 13:21:48;;;;;;;;;37.67;31.33;;;;;;;;4716821;30;45382;-63
2022/12/09 13:24:32;;;;;;;;;39.75;32.75;;;;;;;;4711702;30;45562;-63
2022/12/09 13:27:00;;;;;;;;;37.67;29.67;;;;;;;;4718597;30;45818;-63
2022/12/09 13:29:37;;;;;;;;;29.00;23.67;;;;;;;;4717136;30;46338;-63
2022/12/09 13:32:13;;;;;;;;;39.00;30.67;;;;;;;;4717340;30;45625;-64
2022/12/09 13:34:50;;;;;;;;;35.00;29.33;;;;;;;;4721937;30;45484;-64
2022/12/09 13:37:41;;;;;;;;;43.25;36.25;;;;;;;;4723869;30;45541;-64
2022/12/09 13:40:26;;;;;;;;;43.25;35.50;;;;;;;;4673165;30;45499;-64
2022/12/09 13:43:00;;;;;;;;;37.33;31.00;;;;;;;;4718379;30;45372;-64
2022/12/09 13:45:28;;;;;;;;;43.75;33.50;;;;;;;;4717363;30;45554;-63
2022/12/09 13:47:55;;;;;;;;;35.25;30.25;;;;;;;;4720188;30;45256;-63
2022/12/09 13:50:26;;;;;;;;;36.67;27.67;;;;;;;;4715572;30;47094;-63
2022/12/09 13:52:53;;;;;;;;;41.75;35.25;;;;;;;;4718221;30;45284;-64
2022/12/09 13:55:39;;;;;;;;;39.00;33.75;;;;;;;;4719773;30;45723;-64
2022/12/09 13:58:23;;;;;;;;;36.25;29.25;;;;;;;;4718142;30;45657;-63
2022/12/09 14:01:00;;;;;;;;;35.25;28.25;;;;;;;;4718310;30;45655;-63
2022/12/09 14:03:31;;;;;;;;;36.75;30.25;;;;;;;;4709273;30;45487;-64
2022/12/09 14:05:58;;;;;;;;;31.00;27.67;;;;;;;;4711340;30;45752;-64
2022/12/09 14:08:25;;;;;;;;;38.67;29.00;;;;;;;;4715675;30;45501;-64
2022/12/09 14:10:51;;;;;;;;;34.00;26.67;;;;;;;;4718672;30;46212;-64
2022/12/09 14:13:27;;;;;;;;;36.33;30.00;;;;;;;;4714921;30;45370;-64
2022/12/09 14:16:08;;;;;;;;;40.75;34.25;;;;;;;;4705350;30;45530;-64
2022/12/09 14:18:33;;;;;;;;;38.25;29.75;;;;;;;;4717651;30;46509;-64
2022/12/09 14:21:16;;;;;;;;;30.25;25.50;;;;;;;;4716934;30;46426;-64
2022/12/09 14:24:00;;;;;;;;;29.25;25.50;;;;;;;;4710257;30;45501;-64
2022/12/09 14:26:54;;;;;;;;;31.33;27.33;;;;;;;;4715957;30;45627;-64
2022/12/09 14:29:38;;;;;;;;;30.25;27.00;;;;;;;;4704654;30;45451;-64
2022/12/09 14:32:15;;;;;;;;;34.25;28.75;;;;;;;;4717288;30;45657;-64
2022/12/09 14:34:41;;;;;;;;;39.75;31.00;;;;;;;;4724555;30;45483;-64
2022/12/09 14:37:06;;;;;;;;;34.50;26.75;;;;;;;;4726756;30;45539;-64
2022/12/09 14:39:39;;;;;;;;;33.00;25.33;;;;;;;;4716275;30;46035;-64
2022/12/09 14:42:10;;;;;;;;;29.00;21.75;;;;;;;;4717125;30;45770;-64
2022/12/09 14:44:35;;;;;;;;;39.25;33.75;;;;;;;;4717096;30;45581;-64
2022/12/09 14:47:12;;;;;;;;;33.25;30.00;;;;;;;;4715552;30;45570;-64
2022/12/09 14:49:37;;;;;;;;;30.25;26.00;;;;;;;;4720980;30;45574;-64
2022/12/09 14:52:09;;;;;;;;;33.50;27.25;;;;;;;;4720567;30;45336;-64
2022/12/09 14:54:35;;;;;;;;;37.25;24.25;;;;;;;;4720872;30;45460;-64
2022/12/09 14:57:03;;;;;;;;;32.75;28.75;;;;;;;;4727344;30;45208;-64
2022/12/09 14:59:29;;;;;;;;;34.00;32.00;;;;;;;;4720964;30;45638;-64
2022/12/09 15:02:01;;;;;;;;;32.25;29.00;;;;;;;;4724951;30;46283;-64
2022/12/09 15:04:31;;;;;;;;;33.75;31.75;;;;;;;;4723271;30;45408;-63
2022/12/09 15:07:07;;;;;;;;;30.75;29.50;;;;;;;;4712497;30;45486;-64
2022/12/09 15:09:32;;;;;;;;;26.75;26.25;;;;;;;;4711010;30;45660;-64
2022/12/09 15:11:57;;;;;;;;;29.25;29.25;;;;;;;;4721206;30;45256;-64
2022/12/09 15:14:29;;;;;;;;;33.50;26.75;;;;;;;;4726672;30;45363;-64
2022/12/09 15:16:55;;;;;;;;;34.67;26.67;;;;;;;;4717701;30;46798;-64
2022/12/09 15:19:21;;;;;;;;;29.00;27.33;;;;;;;;4720911;30;45651;-64
2022/12/09 15:21:47;;;;;;;;;31.25;23.00;;;;;;;;4721748;30;45348;-64
2022/12/09 15:24:14;;;;;;;;;40.75;29.75;;;;;;;;4711595;30;45238;-64
2022/12/09 15:26:39;;;;;;;;;32.00;24.75;;;;;;;;4712720;30;45451;-64
2022/12/09 15:29:05;;;;;;;;;28.75;26.25;;;;;;;;4717482;30;45210;-64
2022/12/09 15:31:31;;;;;;;;;29.75;26.00;;;;;;;;4727670;30;46970;-64
2022/12/09 15:33:57;;;;;;;;;28.50;22.75;;;;;;;;4727224;30;46020;-64
2022/12/09 15:36:34;;;;;;;;;31.25;28.50;;;;;;;;4723153;30;45842;-64
2022/12/09 15:39:07;;;;;;;;;29.25;26.25;;;;;;;;4728293;30;45721;-63
2022/12/09 15:44:26;;;;;;;;;43.50;33.00;;;;;;;;4720516;30;45343;-64
2022/12/09 15:46:53;;;;;;;;;30.75;26.75;;;;;;;;4725489;30;45411;-64
2022/12/09 15:49:22;;;;;;;;;34.00;20.25;;;;;;;;4706775;30;45337;-64
2022/12/09 15:51:50;;;;;;;;;37.50;35.25;;;;;;;;4730636;30;46456;-64
2022/12/09 15:54:17;;;;;;;;;37.50;32.50;;;;;;;;4728844;30;45293;-64
2022/12/09 15:57:03;;;;;;;;;36.75;31.75;;;;;;;;4723983;30;45447;-64
2022/12/09 15:59:31;;;;;;;;;37.50;32.25;;;;;;;;4723648;30;45464;-63
2022/12/09 16:01:58;;;;;;;;;65.75;51.25;;;;;;;;4723439;30;45491;-64
2022/12/09 16:04:35;;;;;;;;;59.00;46.00;;;;;;;;4721256;30;45427;-64
2022/12/09 16:07:07;;;;;;;;;67.25;55.00;;;;;;;;4720444;30;45543;-63
2022/12/09 16:09:33;;;;;;;;;56.75;45.25;;;;;;;;4720383;30;45613;-64
2022/12/09 16:11:58;;;;;;;;;58.75;39.25;;;;;;;;4722728;30;45965;-63
2022/12/09 16:14:23;;;;;;;;;46.50;41.25;;;;;;;;4715955;30;46031;-64
2022/12/09 16:16:57;;;;;;;;;43.50;35.75;;;;;;;;4718654;30;45460;-64
2022/12/09 16:19:23;;;;;;;;;47.75;37.50;;;;;;;;4714656;30;45546;-64
2022/12/09 16:21:51;;;;;;;;;52.25;38.50;;;;;;;;4700657;30;46207;-64
2022/12/09 16:24:16;;;;;;;;;48.00;41.25;;;;;;;;4703902;30;45326;-64
2022/12/09 16:26:44;;;;;;;;;42.75;33.50;;;;;;;;4720566;30;45466;-64
2022/12/09 16:29:15;;;;;;;;;42.25;36.25;;;;;;;;4718305;30;45469;-64
2022/12/09 16:31:41;;;;;;;;;39.50;36.00;;;;;;;;4721996;30;45962;-64
2022/12/09 16:34:17;;;;;;;;;57.00;42.50;;;;;;;;4724624;30;45441;-65
2022/12/09 16:36:55;;;;;;;;;58.75;44.00;;;;;;;;4720544;30;45325;-65
2022/12/09 16:39:23;;;;;;;;;49.50;39.00;;;;;;;;4711737;30;45457;-65
2022/12/09 16:41:51;;;;;;;;;54.25;39.00;;;;;;;;4711494;30;45713;-63
2022/12/09 16:44:21;;;;;;;;;43.50;37.75;;;;;;;;4707044;30;45628;-65
2022/12/09 16:46:46;;;;;;;;;55.50;37.00;;;;;;;;4715173;30;45680;-64
2022/12/09 16:49:11;;;;;;;;;49.25;37.50;;;;;;;;4713595;30;45359;-64
2022/12/09 16:51:37;;;;;;;;;52.00;42.00;;;;;;;;4714631;30;47111;-64
2022/12/09 16:54:05;;;;;;;;;45.75;38.50;;;;;;;;4712549;30;45358;-64
2022/12/09 16:56:30;;;;;;;;;45.25;39.50;;;;;;;;4716027;30;45375;-64
2022/12/09 16:58:57;;;;;;;;;45.50;40.25;;;;;;;;4719441;30;45822;-64
2022/12/09 17:01:25;;;;;;;;;47.50;37.75;;;;;;;;4718441;30;46191;-65
2022/12/09 17:04:08;;;;;;;;;43.25;37.75;;;;;;;;4713584;30;45653;-65
2022/12/09 17:06:34;;;;;;;;;44.75;37.00;;;;;;;;4709339;30;45438;-65
2022/12/09 17:08:59;;;;;;;;;51.25;37.50;;;;;;;;4715838;30;45419;-64
2022/12/09 17:11:24;;;;;;;;;47.50;38.50;;;;;;;;4718610;30;45445;-66
2022/12/09 17:13:49;;;;;;;;;44.50;37.75;;;;;;;;4726769;30;45307;-65
2022/12/09 17:16:15;;;;;;;;;125.25;103.25;;;;;;;;4717734;30;45370;-65
2022/12/09 17:18:40;;;;;;;;;77.25;56.25;;;;;;;;4719735;30;45368;-66
2022/12/09 17:21:07;;;;;;;;;58.50;46.50;;;;;;;;4719733;30;45654;-66
2022/12/09 17:23:32;;;;;;;;;61.00;46.75;;;;;;;;4718192;30;45339;-66
2022/12/09 17:25:58;;;;;;;;;56.00;43.50;;;;;;;;4720278;30;45337;-66
2022/12/09 17:28:24;;;;;;;;;56.25;43.25;;;;;;;;4718906;30;45319;-66
2022/12/09 17:30:49;;;;;;;;;55.75;42.75;;;;;;;;4719029;30;46081;-66
2022/12/09 17:33:14;;;;;;;;;53.00;42.75;;;;;;;;4719149;30;45560;-65
2022/12/09 17:35:39;;;;;;;;;60.50;46.50;;;;;;;;4719370;30;45224;-66
2022/12/09 17:38:04;;;;;;;;;64.50;47.75;;;;;;;;4718905;30;45321;-66
2022/12/09 17:40:30;;;;;;;;;60.50;47.50;;;;;;;;4715920;30;46145;-66
2022/12/09 17:42:55;;;;;;;;;50.25;43.50;;;;;;;;4710824;30;45347;-66
2022/12/09 17:45:20;;;;;;;;;58.75;45.50;;;;;;;;4717612;30;45306;-66
2022/12/09 17:47:47;;;;;;;;;56.00;44.50;;;;;;;;4712947;30;45467;-66
2022/12/09 17:50:12;;;;;;;;;64.00;47.50;;;;;;;;4719321;30;46316;-66
2022/12/09 17:52:38;;;;;;;;;83.50;61.50;;;;;;;;4717854;30;45229;-66
2022/12/09 17:55:05;;;;;;;;;86.25;63.50;;;;;;;;4719259;30;45362;-66
2022/12/09 17:57:30;;;;;;;;;64.25;52.50;;;;;;;;4707964;30;45413;-66
2022/12/09 17:59:55;;;;;;;;;70.00;56.25;;;;;;;;4713765;30;45963;-66
2022/12/09 18:02:20;;;;;;;;;78.25;56.50;;;;;;;;4708403;30;45372;-66
2022/12/09 18:04:46;;;;;;;;;65.50;50.00;;;;;;;;4719741;30;45221;-66
2022/12/09 18:07:11;;;;;;;;;87.25;68.50;;;;;;;;4715388;30;45332;-66
2022/12/09 18:09:36;;;;;;;;;61.00;49.25;;;;;;;;4714162;30;45973;-65
2022/12/09 18:12:01;;;;;;;;;70.25;55.25;;;;;;;;4719166;30;45324;-65
2022/12/09 18:14:26;;;;;;;;;63.00;49.75;;;;;;;;4718522;30;45523;-65
2022/12/09 18:16:52;;;;;;;;;64.75;50.25;;;;;;;;4712847;30;45496;-64
2022/12/09 18:19:19;;;;;;;;;58.25;46.50;;;;;;;;4718307;30;45447;-65
2022/12/09 18:21:44;;;;;;;;;61.25;50.00;;;;;;;;4710581;30;45712;-64
2022/12/09 18:24:09;;;;;;;;;62.50;46.75;;;;;;;;4715584;30;46276;-65
2022/12/09 18:26:34;;;;;;;;;57.00;47.50;;;;;;;;4714900;30;45274;-65
2022/12/09 18:29:00;;;;;;;;;60.75;48.25;;;;;;;;4711218;30;45556;-65
2022/12/09 18:31:25;;;;;;;;;54.25;44.00;;;;;;;;4711348;30;45533;-65
2022/12/09 18:33:50;;;;;;;;;63.25;50.25;;;;;;;;4711908;30;45495;-65
2022/12/09 18:36:21;;;;;;;;;57.75;45.75;;;;;;;;4712052;30;45357;-65
2022/12/09 18:38:46;;;;;;;;;54.50;44.25;;;;;;;;4718655;30;45407;-65
2022/12/09 18:41:12;;;;;;;;;65.25;46.00;;;;;;;;4710116;30;45404;-68
2022/12/09 18:43:39;;;;;;;;;64.75;50.00;;;;;;;;4716646;30;45415;-65
2022/12/09 18:46:08;;;;;;;;;71.25;52.50;;;;;;;;4719609;30;45407;-65
2022/12/09 18:48:34;;;;;;;;;65.25;50.00;;;;;;;;4711236;30;46287;-64
2022/12/09 18:50:59;;;;;;;;;63.25;50.50;;;;;;;;4713841;30;45347;-65
2022/12/09 18:53:25;;;;;;;;;67.00;53.25;;;;;;;;4716544;30;45407;-65
2022/12/09 18:55:50;;;;;;;;;60.75;46.50;;;;;;;;4716655;30;45414;-65
2022/12/09 18:58:15;;;;;;;;;61.00;48.00;;;;;;;;4719063;30;46148;-65
2022/12/09 19:00:40;;;;;;;;;59.50;48.00;;;;;;;;4716601;30;45858;-65
2022/12/09 19:03:05;;;;;;;;;60.00;48.75;;;;;;;;4716241;30;45449;-65
2022/12/09 19:05:35;;;;;;;;;67.00;49.00;;;;;;;;4715512;30;45265;-64
2022/12/09 19:08:00;;;;;;;;;62.75;50.00;;;;;;;;4715641;30;47018;-64
2022/12/09 19:10:25;;;;;;;;;81.50;61.00;;;;;;;;4717920;30;46079;-66
2022/12/09 19:12:53;;;;;;;;;79.50;59.25;;;;;;;;4704757;30;45488;-65
2022/12/09 19:15:18;;;;;;;;;64.50;51.25;;;;;;;;4715846;30;45484;-64
2022/12/09 19:17:44;;;;;;;;;63.50;52.00;;;;;;;;4713876;30;46123;-64
2022/12/09 19:20:10;;;;;;;;;64.00;50.00;;;;;;;;4719915;30;45375;-62
2022/12/09 19:22:35;;;;;;;;;62.00;49.00;;;;;;;;4725133;30;45566;-63
2022/12/09 19:25:00;;;;;;;;;59.75;48.75;;;;;;;;4717158;30;45383;-63
2022/12/09 19:27:25;;;;;;;;;60.75;50.25;;;;;;;;4716445;30;46063;-65
2022/12/09 19:29:51;;;;;;;;;69.00;53.00;;;;;;;;4715432;30;45491;-65
2022/12/09 19:32:16;;;;;;;;;73.25;55.50;;;;;;;;4675451;30;1288941;-65
2022/12/09 19:34:41;;;;;;;;;64.75;50.25;;;;;;;;4721675;30;45736;-64
2022/12/09 19:37:06;;;;;;;;;66.00;48.00;;;;;;;;4717474;30;46567;-64
2022/12/09 19:39:33;;;;;;;;;63.50;51.00;;;;;;;;4715859;30;45407;-65
2022/12/09 19:41:59;;;;;;;;;66.75;52.25;;;;;;;;4720660;30;45414;-65
2022/12/09 19:44:25;;;;;;;;;63.75;50.00;;;;;;;;4715199;30;45375;-65
2022/12/09 19:46:50;;;;;;;;;60.75;49.00;;;;;;;;4721173;30;46246;-65
2022/12/09 19:49:16;;;;;;;;;64.25;50.75;;;;;;;;4723037;30;45557;-65
2022/12/09 19:51:42;;;;;;;;;65.00;51.50;;;;;;;;4705667;30;46569;-65
2022/12/09 19:54:08;;;;;;;;;62.25;51.50;;;;;;;;4714713;30;45793;-65
2022/12/09 19:56:34;;;;;;;;;67.50;53.75;;;;;;;;4715828;30;46998;-65
2022/12/09 19:58:59;;;;;;;;;70.75;52.75;;;;;;;;4707435;30;46392;-65
2022/12/09 20:01:24;;;;;;;;;72.25;54.50;;;;;;;;4718407;30;45772;-65
2022/12/09 20:03:51;;;;;;;;;67.25;51.25;;;;;;;;4718664;30;45443;-65
2022/12/09 20:06:17;;;;;;;;;63.25;50.50;;;;;;;;4713905;30;45725;-65
2022/12/09 20:08:43;;;;;;;;;73.50;55.00;;;;;;;;4717631;30;45558;-65
2022/12/09 20:11:10;;;;;;;;;74.75;56.00;;;;;;;;4719957;30;45460;-67
2022/12/09 20:13:36;;;;;;;;;68.00;55.00;;;;;;;;4715298;30;45570;-67
2022/12/09 20:16:02;;;;;;;;;80.00;58.25;;;;;;;;4723796;30;45261;-67
2022/12/09 20:18:27;;;;;;;;;110.00;90.25;;;;;;;;4721935;30;45433;-68
2022/12/09 20:20:52;;;;;;;;;75.00;58.00;;;;;;;;4730708;30;45359;-68
2022/12/09 20:23:17;;;;;;;;;77.50;60.00;;;;;;;;4722513;30;45683;-68
2022/12/09 20:25:42;;;;;;;;;70.50;55.00;;;;;;;;4725493;30;46076;-68
2022/12/09 20:28:08;;;;;;;;;77.00;55.25;;;;;;;;4722591;30;45237;-68
2022/12/09 20:30:33;;;;;;;;;76.00;56.75;;;;;;;;4718560;30;45611;-68
2022/12/09 20:32:58;;;;;;;;;73.50;54.25;;;;;;;;4721986;30;45387;-68
2022/12/09 20:35:23;;;;;;;;;64.25;50.25;;;;;;;;4723216;30;46856;-68
2022/12/09 20:37:49;;;;;;;;;68.00;52.50;;;;;;;;4729780;30;45336;-68
2022/12/09 20:40:14;;;;;;;;;67.25;50.75;;;;;;;;4720404;30;45580;-69
2022/12/09 20:42:39;;;;;;;;;94.25;83.00;;;;;;;;4723181;30;45378;-68
2022/12/09 20:45:05;;;;;;;;;83.00;64.00;;;;;;;;4729360;30;45510;-68
2022/12/09 20:47:30;;;;;;;;;97.00;86.25;;;;;;;;4725133;30;45552;-68
2022/12/09 20:49:55;;;;;;;;;100.25;90.00;;;;;;;;4720072;30;45407;-68
2022/12/09 20:52:21;;;;;;;;;84.50;62.25;;;;;;;;4720136;30;45562;-69
2022/12/09 20:54:46;;;;;;;;;70.50;55.25;;;;;;;;4724152;30;46152;-68
2022/12/09 20:57:11;;;;;;;;;85.00;61.00;;;;;;;;4726916;30;45632;-69
2022/12/09 20:59:36;;;;;;;;;90.25;68.00;;;;;;;;4720387;30;45483;-68
2022/12/09 21:02:02;;;;;;;;;83.25;61.00;;;;;;;;4714740;30;45433;-69
2022/12/09 21:04:27;;;;;;;;;76.75;58.00;;;;;;;;4720881;30;45934;-69